Aviation Digital Data Service (ADDS)

Output produced by METARs form (0745 UTC 24 May 2018)
found at http://www.aviationweather.gov/adds/metars/
 
EDAC 240720Z 08007KT 050V110 9999 FEW017 SCT036 BKN054 16/12 Q1021
EDMA 240720Z VRB01KT 9999 FEW011 SCT035 BKN044 17/14 Q1019
TAF EDMA 240500Z 2406/2415 VRB03KT 9999 FEW015 SCT040 
     PROB30 
     TEMPO 2409/2411 SHRA SCT012 BKN030CB 
     PROB30 
     TEMPO 2411/2415 23010KT TSRA SCT015 BKN040CB
       
EDVE 240720Z 08007KT 040V110 CAVOK 19/10 Q1022
TAF EDVE 240500Z 2406/2415 08007KT CAVOK 
     BECMG 2408/2410 10012KT 
     TEMPO 2411/2415 10015G25KT
       
EDDW 240720Z 08010KT 050V110 CAVOK 19/09 Q1023 NOSIG
TAF EDDW 240500Z 2406/2506 07008KT CAVOK 
     BECMG 2408/2410 08013KT 
     TEMPO 2409/2418 09015G25KT 
     BECMG 2418/2420 07008KT
       
ETSB 240720Z 08009KT 9999 FEW016 SCT110 15/11 Q1019 BLU+BLU TEMPO BLU+
TAF ETSB 240728Z 2408/2417 07010KT 9999 NSW FEW020 SCT110 
     TEMPO 2412/2417 VRB12G22KT 4000 SHRA BKN030CB 
     PROB30 2413/2417 VRB15G30KT 2000 TSRA BKN020CB BY ETGL
       
ETHB 240720Z 07011KT 9999 FEW090 SCT180 BKN300 18/10 Q1021 BLU+BLU+
TAF ETHB 240721Z 2408/2417 08010KT 9999 NSW FEW070 SCT140 
     BECMG 2408/2410 09015G28KT 9999 NSW FEW050 BKN080
       
ETHC 240720Z 07013KT 9999 FEW180 SCT320 19/08 Q1023 BLU+BLU+
TAF ETHC 240726Z 2408/2417 09015G25KT 9999 NSW FEW060 SCT200
       
ETND 240720Z 08007KT 9999 FEW140 SCT200 18/09 Q1022 BLU+BLU+
TAF ETND 240715Z 2408/2417 07003KT 9999 NSW FEW140 SCT200 
     BECMG 2408/2410 09015G25KT 9999 NSW FEW120 SCT180 BY ETGL
       
EDLW 240720Z 05006KT 030V090 CAVOK 15/10 Q1020
TAF EDLW 240500Z 2406/2506 04007KT 9999 SCT040 
     BECMG 2408/2410 10010KT 
     TEMPO 2410/2423 SHRA BKN030TCU 
     PROB30 
     TEMPO 2411/2422 12015G25KT 4500 TSRAGR BKN020CB 
     BECMG 2419/2422 07004KT 
     TEMPO 2502/2506 4000 BR
       
EDDC 240720Z AUTO 09011KT //// R04/P2000N ///////// 19/11 Q1022 NOSIG
TAF EDDC 240500Z 2406/2506 08010KT CAVOK 
     BECMG 2408/2411 08015G25KT 
     BECMG 2417/2419 08007KT
       
EDDL 240720Z 05009KT 9999 -SHRA FEW030TCU SCT050 BKN080 15/13 Q1019 NOSIG
TAF EDDL 240500Z 2406/2512 04007KT 9999 SCT040 
     BECMG 2408/2410 10010KT 
     TEMPO 2410/2423 SHRA BKN030TCU 
     PROB30 
     TEMPO 2411/2422 12015G25KT 4500 TSRAGR BKN020CB 
     BECMG 2419/2422 07004KT 
     TEMPO 2502/2506 4000 BR
       
EDDE 240720Z 06006KT 4000 RA SCT023 OVC060 14/13 Q1021 BECMG 9999 NSW
TAF EDDE 240500Z 2406/2506 07009KT 9999 SCT045 
     PROB30 
     TEMPO 2412/2421 09015G25KT TSRA BKN030CB
       
ETHS 240720Z 11011KT 9999 FEW200 SCT320 19/08 Q1023 BLU+BLU+
TAF ETHS 240709Z 2408/2417 10012G28KT 9999 NSW FEW060 BKN200
       
EDFH 240720Z 13005KT 060V180 CAVOK 16/13 Q1019
TAF EDFH 240500Z 2406/2506 12005KT CAVOK 
     PROB40 
     TEMPO 2410/2422 10015G25KT 4000 TSRA BKN020CB 
     TEMPO 2422/2506 0100 FG BKN001
       
EDDF 240720Z 03006KT 360V070 9999 FEW020 BKN039 18/14 Q1018 TEMPO SHRA BKN030CB
TAF EDDF 240500Z 2406/2512 06006KT 9999 SCT035 
     PROB30 
     TEMPO 2407/2409 08012KT TSRA BKN025CB 
     PROB40 
     TEMPO 2411/2420 09015G25KT 4000 TSRA SCT040CB 
     PROB30 
     TEMPO 2422/2507 BKN004
       
EDNY 240720Z 19005KT 170V230 9999 SCT016 BKN020 OVC025 17/14 Q1019
TAF EDNY 240500Z 2406/2506 VRB02KT 9999 SCT020 BKN050 
     TEMPO 2406/2409 BKN012 
     BECMG 2408/2410 23005KT 
     PROB30 
     TEMPO 2410/2415 TSRA BKN030CB 
     BECMG 2417/2419 VRB03KT
       
ETHF 240720Z 03002KT 9999 BKN080 BKN120 17/13 Q1020 BLU BLU
TAF ETHF 240704Z 2408/2417 07008KT 9999 NSW SCT060 BKN120 
     TEMPO 2412/2417 08012KT 5000 SHRA SCT040 BKN050TCU 
     PROB30 2414/2417 08020G35KT 3000 TSRA SCT030 BKN040CB
       
ETNG 240650Z 08010KT CAVOK 18/12 Q1019 NOSIG
TAF COR ETNG 240500Z 2406/2421 09008KT CAVOK 
     TEMPO 2410/2421 5000 SHRA SCT045CB BKN060 
     PROB40 
     TEMPO 2412/2420 15015G25KT 2000 +TSRAGR BKN040CB
       
ETIC 240727Z AUTO 00000KT 3000 +RA BR FEW002 BKN017 15/15 A3010 RMK AO2 VIS 3000V5000 RAB07 BKN V OVC SLP188 $
TAF ETIC 240607Z 2406/2512 09009KT 8000 -SHRA BKN070 OVC100 QNH3006INS 
     BECMG 2411/2412 09012KT 8000 -TSRA BKN035CB QNH3004INS 
     TEMPO 2412/2417 09012G20KT 
     BECMG 2418/2419 VRB06KT 8000 -SHRA BKN040 QNH3005INS TX21/2415Z TN13/2503Z
       
EDDH 240720Z 09009KT 060V120 CAVOK 20/09 Q1025 NOSIG
TAF EDDH 240500Z 2406/2512 07010KT CAVOK 
     TEMPO 2408/2419 08015G25KT
       
EDHI 240720Z 09009KT 040V120 CAVOK 20/09 Q1024
TAF EDHI 240500Z 2406/2415 08010KT CAVOK 
     PROB30 
     TEMPO 2409/2415 08015G25KT
       
EDDV 240720Z 08012KT CAVOK 19/10 Q1023 NOSIG
TAF EDDV 240500Z 2406/2506 06007KT CAVOK 
     BECMG 2408/2410 08013KT 
     TEMPO 2409/2419 09015G25KT 
     PROB30 
     TEMPO 2417/2424 -TSRA BKN030CB 
     BECMG 2419/2421 07007KT
       
EDAH 240720Z 03007KT 010V070 CAVOK 17/09 Q1027
TAF EDAH 240729Z 2407/2415 05010KT CAVOK 
     BECMG 2410/2412 05015KT 
     TEMPO 2412/2415 05015G25KT
       
EDQM 240720Z 03004KT 340V070 7000 -SHRA FEW005 SCT018 BKN031 14/13 Q1020
TAF EDQM 240523Z 2406/2415 06007KT 9999 FEW015 SCT040 
     BECMG 2407/2409 08012KT 
     TEMPO 2407/2415 SHRA SCT015 BKN030CB 
     PROB30 
     TEMPO 2409/2415 10015G25KT TSRA
       
ETIH 240707Z AUTO 00000KT 9999 OVC033 17/15 A3011 RMK AO2 RAB0658E07 SLP189 $
ETNH 240720Z 08011KT 9999 FEW300 19/10 Q1026 BLU+BLU+
TAF ETNH 240418Z 2405/2417 08008KT 9999 NSW SKC 
     BECMG 2408/2410 08015KT 9999 NSW FEW300 
     TEMPO 2410/2417 07015G30KT 9999 NSW FEW300 BY ETGL
       
ETSH 240720Z 08011KT 9999 FEW120 SCT210 21/09 Q1022 BLU+BLU+
TAF ETSH 240717Z 2408/2417 08010G20KT 9999 NSW FEW060 SCT130 BKN230
       
ETSI 240720Z 30006KT 9999 FEW017 BKN040 BKN100 20/14 Q1019 BLU BLU TEMPO WHT
TAF ETSI 240403Z 2405/2414 VRB03KT 8000 -RA FEW020 SCT040 BKN080 
     TEMPO 2405/2414 VRB10G20KT 6000 SHRA FEW012 BKN030TCU 
     PROB30 2410/2414 VRB15G25KT 1500 +TSRA FEW010 BKN030CB
       
EDSB 240720Z 21005KT 6000 FEW006 SCT051 17/16 Q1018
TAF EDSB 240500Z 2406/2506 22004KT 9999 SCT045 
     PROB40 
     TEMPO 2406/2408 2000 BR 
     PROB30 
     TEMPO 2409/2416 12010KT TSRA BKN030CB 
     TEMPO 2501/2506 2000 BR 
     PROB40 
     TEMPO 2503/2506 0800 FG BKN001
       
EDVK 240720Z 09007KT CAVOK 17/11 Q1021
TAF EDVK 240500Z 2406/2415 06006KT 9999 FEW040 
     BECMG 2409/2411 09012KT 
     PROB30 
     TEMPO 2413/2415 10015G30KT TSRA SCT050CB
       
EDHK 240720Z 07009KT CAVOK 17/11 Q1026
TAF EDHK 240620Z 2406/2415 07007KT CAVOK 
     BECMG 2407/2409 07012KT 
     TEMPO 2411/2415 06015G25KT
       
EDDK 240720Z VRB02KT CAVOK 18/12 Q1019 NOSIG
TAF EDDK 240500Z 2406/2512 VRB02KT 9999 FEW040 
     BECMG 2408/2410 11008KT 
     TEMPO 2411/2423 SHRA BKN030TCU 
     PROB30 
     TEMPO 2413/2420 TSRA BKN020CB 
     BECMG 2419/2421 10003KT
       
ETNL 240720Z 09012KT 9999 FEW300 18/10 Q1026 BLU+BLU+
TAF ETNL 240720Z 2408/2417 08012G22KT 9999 NSW FEW300 
     TEMPO 2412/2417 08018G28KT 9999 NSW FEW060 SCT280 BY ETGL
       
EDTL 240720Z VRB02KT 7000 -DZ BKN022 OVC092 17/15 Q1019
TAF EDTL 240620Z 2407/2415 VRB03KT 9999 FEW030 
     PROB30 
     TEMPO 2410/2415 TSRA SCT020CB
       
ETSA 240720Z AUTO 24003KT 9999 // ////// 15/12 Q1019 ///
ETHL 240720Z 26004KT 8000 SCT009 BKN100 15/14 Q1019 BLU BLU
TAF ETHL 240725Z 2408/2417 VRB03KT 9999 NSW FEW050 BKN120 
     TEMPO 2408/2417 23005KT 8000 SHRA BKN025TCU BKN100 
     PROB30 2416/2417 VRB15G25KT 4000 TSRA SCT015 BKN020CB
       
ETSL 240720Z 23004KT 9999 FEW008 BKN080 BKN220 15/13 Q1019 BLU BLU TEMPO GRN
TAF ETSL 240728Z 2408/2417 24005KT 9999 NSW FEW010 BKN090 
     TEMPO 2414/2417 VRB12G22KT 4000 SHRA BKN040CB 
     PROB30 2414/2417 VRB15G30KT 2000 TSRA BKN020CB BY ETGL
       
EDDP 240720Z 07009KT CAVOK 17/12 Q1021 NOSIG
TAF EDDP 240500Z 2406/2506 06012KT CAVOK 
     PROB30 
     TEMPO 2409/2415 08015G25KT 
     BECMG 2415/2417 07007KT
       
EDHL 240720Z 07009KT CAVOK 19/10 Q1026
TAF EDHL 240500Z 2406/2415 07007KT CAVOK 
     BECMG 2407/2410 07012KT 
     TEMPO 2412/2415 07015G25KT
       
EDFM 240720Z VRB02KT 6000 NSC 16/16 Q1019
TAF EDFM 240500Z 2406/2415 11004KT 9999 SCT040 
     PROB30 
     TEMPO 2409/2415 12012KT TSRA BKN030CB
       
EDLN 240720Z 05006KT 020V080 9999 VCSH FEW018 BKN042 15/14 Q1019
TAF EDLN 240625Z 2407/2415 04005KT 9999 SCT035 
     TEMPO 2407/2408 SHRA SCT025TCU 
     BECMG 2408/2410 10008KT 
     PROB30 
     TEMPO 2412/2415 11015G25KT 4500 TSRAGR BKN020CB
       
EDDM 240720Z 25004KT 9000 -RA BKN007 BKN080 16/14 Q1019 BECMG BKN010
TAF EDDM 240500Z 2406/2512 24005KT 9999 SCT020 BKN045 
     TEMPO 2406/2408 BKN009 
     PROB30 
     TEMPO 2411/2419 24015G25KT TSRA BKN030CB 
     BECMG 2417/2419 VRB02KT 
     BECMG 2422/2502 4000 BCFG 
     PROB30 
     TEMPO 2502/2505 0700 FG 
     BECMG 2506/2508 35005KT
       
EDDG 240720Z 05006KT 010V100 CAVOK 17/09 Q1021 NOSIG
TAF EDDG 240500Z 2406/2506 05005KT CAVOK 
     BECMG 2407/2410 09011KT 
     PROB30 
     TEMPO 2415/2424 SHRA SCT030TCU 
     BECMG 2416/2419 08006KT
       
ETSN 240720Z 29003KT 9999 FEW030 BKN040 BKN130 16/14 Q1019 BLU BLU TEMPO GRN
TAF ETSN 240728Z 2408/2417 32005KT 9999 NSW SCT040 BKN090 
     TEMPO 2408/2417 VRB12G22KT 4000 SHRA BKN040CB 
     PROB30 2412/2417 VRB15G30KT 2000 TSRA BKN020CB BY ETGL
       
ETHN 240720Z 11006KT 4500 BR BKN003 BKN070 15/15 Q1019 YLO YLO TEMPO AMB
TAF ETHN 240700Z 2408/2417 10005KT 7000 NSW BKN005 BKN050 
     TEMPO 2408/2409 05010G20KT 3000 SHRA BKN002 BKN040CB 
     BECMG 2409/2411 07005KT 9999 NSW SCT005 BKN070 
     PROB30 2409/2417 VRB15G25KT 2000 TSRA BKN005 BKN030CB
       
ETMN 240720Z 09010KT 9999 FEW300 18/09 Q1024 BLU+BLU+
TAF ETMN 240722Z 2408/2417 07012G22KT 9999 NSW FEW050 
     TEMPO 2411/2417 08018G30KT 9999 NSW FEW050
       
ETNN 240720Z 08003KT 9999 FEW110 SCT220 17/12 Q1019 BLU+BLU+ TEMPO WHT
TAF ETNN 240720Z 2408/2417 09004KT 9999 NSW SCT050 BKN150 
     TEMPO 2408/2415 VRB10G20KT 5000 SHRA BKN040CB 
     TEMPO 2415/2417 VRB15G30KT 3000 TSRA SCT015 BKN030CB 
     PROB30 2408/2417 VRB15G35KT 2000 +TSRAGR SCT015 BKN030CB BY ETGL
       
EDDN 240720Z VRB01KT 6000 SHRA FEW003 SCT020CB BKN050 15/14 Q1020 NOSIG
TAF AMD EDDN 240613Z 2406/2506 12005KT 9999 SCT020 BKN040 
     TEMPO 2406/2409 3500 +SHRA BKN012 BKN020CB 
     PROB40 
     TEMPO 2406/2420 14015G25KT TSRA BKN030CB 
     BECMG 2416/2418 VRB02KT 
     TEMPO 2420/2424 RA BKN014 
     TEMPO 2500/2506 4000 BR BKN008
       
EDMO 240720Z 23006KT 9999 FEW008 SCT022 BKN031 15/13 Q1019
TAF EDMO 240500Z 2406/2415 26004KT 9999 FEW010 SCT025 
     PROB40 
     TEMPO 2406/2411 4000 SHRA SCT008 BKN013 SCT030CB 
     PROB30 
     TEMPO 2411/2415 26012KT TSRA SCT015 BKN030CB
       
EDLP 240720Z 09008KT CAVOK 18/11 Q1020
TAF EDLP 240500Z 2406/2506 09005KT CAVOK 
     BECMG 2406/2409 10010KT 
     PROB30 
     TEMPO 2417/2424 17015G25KT TSRA BKN030CB 
     BECMG 2417/2420 10005KT
       
ETAR 240656Z AUTO 36003KT 9999 CLR 14/14 A3008 RMK AO2 SLP187 T01400140 $
TAF AMD ETAR 240631Z 2406/2508 VRB06KT 8000 BR SCT100 QNH3004INS 
     TEMPO 2406/2407 3200 BR BKN002 
     BECMG 2410/2411 10009KT 8000 -SHRA SCT020 BKN025 QNH2999INS 
     TEMPO 2412/2418 10010G15KT 6000 -TSRA BKN020CB 
     BECMG 2418/2419 VRB06KT 9999 NSW FEW020 SCT100 QNH3001INS TX22/2414Z TN09/2505Z
       
EDDR 240720Z 07005KT 050V110 CAVOK 15/14 Q1019 NOSIG
TAF EDDR 240500Z 2406/2506 12004KT CAVOK 
     PROB30 
     TEMPO 2406/2409 BKN008 
     PROB40 
     TEMPO 2410/2420 10015G25KT 4000 TSRA BKN020CB 
     TEMPO 2423/2506 0400 FG BKN001
       
ETNS 240720Z 07012KT 9999 FEW250 19/10 Q1026 BLU+BLU+
TAF ETNS 240720Z 2408/2417 07012G22KT 9999 NSW FEW300 
     TEMPO 2412/2417 08018G30KT 9999 NSW FEW060 SCT280 BY ETGL
       
EDDB 240720Z 08013KT CAVOK 19/10 Q1024 NOSIG
TAF EDDB 240500Z 2406/2506 07012KT CAVOK 
     TEMPO 2409/2415 08015G25KT 
     BECMG 2417/2419 07007KT
       
EDTY 240720Z VRB03KT 8000 FEW037 OVC087 17/15 Q1019
TAF EDTY 240500Z 2406/2415 VRB03KT 9999 FEW010 BKN040 
     TEMPO 2406/2408 FEW003 BKN008 
     PROB40 
     TEMPO 2411/2415 23010KT TSRA SCT015 BKN030CB
       
EDGS 240720Z 09012KT 9999 1700N PRFG FEW001 SCT004 BKN086 14/13 Q1020
TAF EDGS 240625Z 2407/2415 10010KT 9999 FEW005 SCT030 
     PROB30 
     TEMPO 2412/2415 12015G25KT 1200 TSRA SCT002 BKN010CB
       
ETAD 240656Z AUTO 08008KT 9999 FEW120 17/14 A3008 RMK AO2 SLP171 T01670136 $
TAF ETAD 240315Z 2403/2509 VRB06KT 9999 SCT100 QNH3003INS 
     BECMG 2410/2411 10009KT 8000 -SHRA SCT020 BKN025 QNH2999INS 
     TEMPO 2411/2418 10010G15KT 6000 -TSRAGS BKN020CB 
     BECMG 2418/2419 VRB06KT 9999 NSW FEW020 SCT100 QNH3001INS TX22/2414Z TN09/2404Z
       
EDDS 240720Z VRB02KT 9999 SCT008 BKN085 17/15 Q1019 NOSIG
TAF COR EDDS 240555Z 2406/2506 04004KT 9999 SCT030 
     PROB30 
     TEMPO 2406/2408 BKN006 
     PROB30 
     TEMPO 2411/2419 19012KT TSRA BKN035CB 
     TEMPO 2421/2506 2000 BR 
     PROB30 
     TEMPO 2422/2506 0400 FG BKN001
       
EDDT 240720Z 07010KT 040V110 CAVOK 19/10 Q1024 NOSIG
TAF EDDT 240500Z 2406/2506 07012KT CAVOK 
     TEMPO 2409/2415 08015G25KT 
     BECMG 2417/2419 07007KT
       
EDXW 240650Z 08011KT CAVOK 18/11 Q1026
TAF EDXW 240658Z 2407/2415 08013KT CAVOK 
     TEMPO 2412/2415 09015G25KT
       
ETOU 240656Z AUTO 06008KT 9999 BKN038 18/14 A3008 RMK AO2 SLP185 T01790136 $
TAF ETOU 240314Z 2403/2509 VRB06KT 9999 SCT100 QNH3005INS 
     BECMG 2408/2409 10009KT 8000 -SHRA SCT020 BKN025 QNH2999INS 
     TEMPO 2409/2414 10010G15KT 6000 -TSRA BKN020CB 
     BECMG 2413/2414 10009KT 6000 -SHRA SCT020 BKN025 QNH2998INS 
     TEMPO 2414/2419 10012G18KT 3200 -TSRAGS BKN020CB 
     BECMG 2418/2419 VRB06KT 9999 NSW FEW020 SCT100 QNH3001INS TX22/2414Z TN09/2404Z
       
ETNT 240720Z 09013KT 9999 FEW260 18/09 Q1024 BLU+BLU+
TAF ETNT 240720Z 2408/2417 09012G22KT 9999 NSW SCT250 BY ETGL
       
ETNW 240720Z 07013KT 9999 FEW180 BKN330 19/09 Q1022 BLU+BLU+
TAF ETNW 240420Z 2405/2505 08010KT 9999 NSW FEW220 
     BECMG 2409/2411 09015KT 9999 NSW SCT200 
     TEMPO 2409/2418 09015G30KT 9999 NSW BKN180 
     BECMG 2416/2418 08010KT 9999 NSW SCT220 BY ETGL